Time;durP1;ratioP1;P1;durP2;ratioP2;P2;SDS_P1;SDS_P2;PMS_P1;PMS_P2;Temp;Humidity;BMP_temperature;BMP_pressure;BME280_temperature;BME280_humidity;BME280_pressure;Samples;Min_cycle;Max_cycle;Signal;HPM_P1;HPM_P2
2022/09/01 00:00:05;;;;;;;;;;;18.60;97.10;;;;;;5041687;28;19944;-72
2022/09/01 00:02:33;;;;;;;;;;;18.40;96.70;;;;;;5036350;28;19929;-72
2022/09/01 00:05:03;;;;;;;;;;;18.40;97.40;;;;;;5034304;28;20031;-74
2022/09/01 00:07:30;;;;;;;;;;;18.40;97.40;;;;;;5033414;28;19983;-74
2022/09/01 00:09:57;;;;;;;;;;;18.40;97.50;;;;;;5014058;28;20548;-73
2022/09/01 00:12:24;;;;;;;;;;;18.30;97.50;;;;;;5039009;28;19929;-73
2022/09/01 00:14:51;;;;;;;;;;;18.20;97.40;;;;;;5024136;28;20027;-73
2022/09/01 00:17:19;;;;;;;;;;;18.10;97.30;;;;;;5040363;28;19935;-73
2022/09/01 00:19:46;;;;;;;;;;;18.10;97.60;;;;;;5048788;28;19936;-73
2022/09/01 00:22:13;;;;;;;;;;;18.10;97.70;;;;;;5023417;28;19983;-73
2022/09/01 00:24:40;;;;;;;;;;;18.00;97.80;;;;;;5028103;28;20003;-73
2022/09/01 00:27:06;;;;;;;;;;;18.00;97.90;;;;;;5028466;28;19925;-73
2022/09/01 00:29:33;;;;;;;;;;;18.00;97.90;;;;;;5038331;28;19925;-73
2022/09/01 00:32:00;;;;;;;;;;;17.90;98.00;;;;;;5030228;28;19983;-73
2022/09/01 00:34:28;;;;;;;;;;;17.90;98.10;;;;;;5048307;28;20451;-73
2022/09/01 00:36:54;;;;;;;;;;;17.90;98.20;;;;;;5046704;28;19929;-74
2022/09/01 00:39:21;;;;;;;;;;;17.80;98.20;;;;;;5019504;28;19937;-73
2022/09/01 00:41:49;;;;;;;;;;;17.80;97.80;;;;;;5020456;28;19936;-73
2022/09/01 00:44:21;;;;;;;;;;;17.80;98.40;;;;;;5020554;28;19929;-72
2022/09/01 00:46:49;;;;;;;;;;;17.70;98.40;;;;;;5029586;28;19987;-72
2022/09/01 00:49:18;;;;;;;;;;;17.70;98.50;;;;;;5040941;28;20356;-74
2022/09/01 00:51:48;;;;;;;;;;;17.70;98.10;;;;;;5009449;28;20490;-74
2022/09/01 00:54:18;;;;;;;;;;;17.70;98.80;;;;;;5043462;28;19999;-75
2022/09/01 00:56:45;;;;;;;;;;;17.80;98.80;;;;;;5028449;28;19929;-76
2022/09/01 00:59:12;;;;;;;;;;;17.80;98.90;;;;;;5028777;28;19937;-77
2022/09/01 01:01:39;;;;;;;;;;;17.80;98.30;;;;;;5028293;28;20369;-76
2022/09/01 01:04:13;;;;;;;;;;;17.80;98.90;;;;;;5026208;28;19932;-76
2022/09/01 01:06:41;;;;;;;;;;;17.80;99.00;;;;;;4994987;28;20614;-75
2022/09/01 01:09:10;;;;;;;;;;;17.80;99.00;;;;;;5042511;28;19939;-76
2022/09/01 01:11:37;;;;;;;;;;;17.80;98.40;;;;;;5029523;28;19925;-74
2022/09/01 01:14:10;;;;;;;;;;;17.80;99.00;;;;;;5021608;28;19928;-74
2022/09/01 01:16:42;;;;;;;;;;;17.80;99.00;;;;;;5025731;28;19948;-76
2022/09/01 01:23:00;;;;;;;;;;;17.80;99.00;;;;;;5025134;28;19933;-77
2022/09/01 01:24:46;;;;;;;;;;;17.80;99.10;;;;;;5027808;28;19967;-74
2022/09/01 01:27:16;;;;;;;;;;;17.80;99.20;;;;;;5027730;28;20059;-74
2022/09/01 01:29:44;;;;;;;;;;;17.90;99.30;;;;;;5010249;28;19936;-78
2022/09/01 01:32:11;;;;;;;;;;;17.90;99.30;;;;;;5026370;28;19999;-74
2022/09/01 01:34:44;;;;;;;;;;;17.90;99.30;;;;;;5027829;28;20683;-74
2022/09/01 01:37:13;;;;;;;;;;;17.90;99.10;;;;;;5027850;28;19983;-77
2022/09/01 01:39:42;;;;;;;;;;;17.90;99.50;;;;;;5013100;28;20356;-76
2022/09/01 01:42:11;;;;;;;;;;;17.80;99.00;;;;;;5038595;28;19944;-72
2022/09/01 01:44:38;;;;;;;;;;;17.80;99.50;;;;;;5026087;28;19929;-72
2022/09/01 01:47:08;;;;;;;;;;;17.80;99.60;;;;;;5017676;28;19929;-73
2022/09/01 01:49:35;;;;;;;;;;;17.80;99.60;;;;;;5035491;28;19932;-73
2022/09/01 01:52:03;;;;;;;;;;;17.80;99.20;;;;;;5005139;28;19925;-75
2022/09/01 01:54:31;;;;;;;;;;;17.80;99.80;;;;;;4989728;28;20306;-73
2022/09/01 01:56:59;;;;;;;;;;;17.80;99.80;;;;;;5003452;28;19932;-73
2022/09/01 01:59:28;;;;;;;;;;;17.80;99.90;;;;;;5031329;28;19961;-73
2022/09/01 02:01:55;;;;;;;;;;;17.80;99.90;;;;;;5013612;28;20052;-73
2022/09/01 02:04:22;;;;;;;;;;;17.80;99.90;;;;;;5031357;28;19940;-73
2022/09/01 02:06:51;;;;;;;;;;;17.70;99.90;;;;;;5012972;28;19932;-73
2022/09/01 02:09:20;;;;;;;;;;;17.60;99.70;;;;;;5012844;28;19999;-72
2022/09/01 02:11:46;;;;;;;;;;;17.50;99.50;;;;;;5033864;28;19925;-73
2022/09/01 02:14:19;;;;;;;;;;;17.50;99.90;;;;;;5032752;28;20559;-73
2022/09/01 02:16:47;;;;;;;;;;;17.50;99.90;;;;;;5024611;28;20019;-73
2022/09/01 02:19:18;;;;;;;;;;;17.50;99.90;;;;;;5012478;28;19929;-73
2022/09/01 02:21:47;;;;;;;;;;;17.40;99.80;;;;;;5038234;28;19936;-73
2022/09/01 02:24:14;;;;;;;;;;;17.40;99.90;;;;;;5050678;28;19929;-73
2022/09/01 02:26:46;;;;;;;;;;;17.40;99.90;;;;;;5014670;28;20016;-73
2022/09/01 02:29:16;;;;;;;;;;;17.40;99.90;;;;;;5000598;28;19933;-73
2022/09/01 02:31:44;;;;;;;;;;;17.30;99.90;;;;;;5027743;28;20624;-73
2022/09/01 02:34:12;;;;;;;;;;;17.30;99.90;;;;;;5030357;28;19932;-71
2022/09/01 02:36:46;;;;;;;;;;;17.20;99.90;;;;;;5023068;28;19998;-72
2022/09/01 02:39:13;;;;;;;;;;;17.20;99.90;;;;;;5018779;28;19929;-72
2022/09/01 02:41:40;;;;;;;;;;;17.10;99.90;;;;;;5032002;28;19962;-72
2022/09/01 02:44:10;;;;;;;;;;;17.00;99.90;;;;;;5020143;28;20482;-72
2022/09/01 02:46:40;;;;;;;;;;;17.00;99.90;;;;;;5018218;28;19936;-72
2022/09/01 02:49:14;;;;;;;;;;;16.90;99.90;;;;;;5031285;28;19929;-72
2022/09/01 02:51:42;;;;;;;;;;;16.90;99.90;;;;;;5020387;28;19984;-72
2022/09/01 02:54:09;;;;;;;;;;;16.90;99.90;;;;;;5020605;28;19925;-72
2022/09/01 02:56:36;;;;;;;;;;;16.90;99.90;;;;;;5022529;28;20035;-72
2022/09/01 02:59:04;;;;;;;;;;;16.90;99.90;;;;;;5029952;28;20386;-72
2022/09/01 03:01:32;;;;;;;;;;;16.90;99.90;;;;;;5020094;28;20378;-72
2022/09/01 03:04:02;;;;;;;;;;;16.90;99.90;;;;;;5029985;28;20576;-72
2022/09/01 03:06:29;;;;;;;;;;;16.90;99.90;;;;;;5025340;28;19968;-72
2022/09/01 03:08:59;;;;;;;;;;;16.80;99.90;;;;;;5017658;28;19936;-72
2022/09/01 03:11:26;;;;;;;;;;;16.80;99.90;;;;;;5024351;28;19925;-72
2022/09/01 03:13:53;;;;;;;;;;;16.80;99.90;;;;;;5011204;28;19929;-72
2022/09/01 03:16:21;;;;;;;;;;;16.70;99.90;;;;;;5029143;28;19936;-72
2022/09/01 03:18:49;;;;;;;;;;;16.70;99.90;;;;;;5024508;28;20002;-72
2022/09/01 03:21:18;;;;;;;;;;;16.60;99.90;;;;;;5011234;28;19968;-72
2022/09/01 03:23:45;;;;;;;;;;;16.60;99.90;;;;;;5011935;28;20294;-72
2022/09/01 03:26:17;;;;;;;;;;;16.60;99.90;;;;;;5028854;28;19929;-72
2022/09/01 03:28:44;;;;;;;;;;;16.50;99.90;;;;;;5011615;28;20027;-72
2022/09/01 03:31:11;;;;;;;;;;;16.50;99.90;;;;;;5031780;28;19933;-72
2022/09/01 03:33:38;;;;;;;;;;;16.50;99.90;;;;;;5035406;28;20402;-72
2022/09/01 03:36:17;;;;;;;;;;;16.40;99.90;;;;;;5030358;28;19967;-72
2022/09/01 03:38:47;;;;;;;;;;;16.40;99.90;;;;;;5010431;28;19925;-72
2022/09/01 03:41:17;;;;;;;;;;;16.40;99.90;;;;;;5030889;28;19935;-72
2022/09/01 03:43:44;;;;;;;;;;;16.40;99.90;;;;;;5016768;28;19979;-72
2022/09/01 03:46:17;;;;;;;;;;;16.40;99.90;;;;;;5020815;28;19929;-72
2022/09/01 03:48:47;;;;;;;;;;;16.40;99.90;;;;;;5005460;28;20004;-72
2022/09/01 03:51:13;;;;;;;;;;;16.30;99.90;;;;;;5019862;28;19929;-72
2022/09/01 03:53:41;;;;;;;;;;;16.30;99.90;;;;;;5016758;28;19983;-72
2022/09/01 03:56:07;;;;;;;;;;;16.30;99.90;;;;;;5012341;28;19936;-72
2022/09/01 03:58:36;;;;;;;;;;;16.20;99.90;;;;;;5018335;28;19929;-72
2022/09/01 04:01:03;;;;;;;;;;;16.20;99.90;;;;;;5018588;28;19929;-71
2022/09/01 04:03:33;;;;;;;;;;;16.20;99.90;;;;;;5017847;28;19925;-72
2022/09/01 04:06:01;;;;;;;;;;;16.20;99.90;;;;;;5030867;28;19929;-73
2022/09/01 04:08:30;;;;;;;;;;;16.10;99.90;;;;;;5030689;28;20456;-72
2022/09/01 04:10:58;;;;;;;;;;;16.10;99.90;;;;;;5030477;28;19929;-72
2022/09/01 04:13:26;;;;;;;;;;;16.10;99.90;;;;;;5021567;28;19929;-71
2022/09/01 04:15:56;;;;;;;;;;;16.00;99.90;;;;;;5013868;28;19972;-72
2022/09/01 04:18:22;;;;;;;;;;;15.90;99.90;;;;;;5020569;28;19933;-71
2022/09/01 04:20:50;;;;;;;;;;;15.90;99.90;;;;;;5009352;28;20465;-72
2022/09/01 04:23:25;;;;;;;;;;;15.80;99.90;;;;;;5009199;28;19992;-74
2022/09/01 04:25:55;;;;;;;;;;;15.80;99.90;;;;;;5011922;28;20072;-73
2022/09/01 04:28:25;;;;;;;;;;;15.70;99.90;;;;;;5018327;28;19936;-72
2022/09/01 04:30:55;;;;;;;;;;;15.60;99.90;;;;;;5022300;28;19983;-72
2022/09/01 04:33:26;;;;;;;;;;;15.60;99.90;;;;;;5019622;28;20496;-72
2022/09/01 04:35:55;;;;;;;;;;;15.60;99.90;;;;;;5007139;28;19979;-72
2022/09/01 04:38:23;;;;;;;;;;;15.50;99.90;;;;;;5010887;28;19935;-72
2022/09/01 04:40:50;;;;;;;;;;;15.40;99.90;;;;;;5019282;28;19941;-73
2022/09/01 04:43:17;;;;;;;;;;;15.40;99.90;;;;;;5035962;28;20064;-74
2022/09/01 04:45:45;;;;;;;;;;;15.40;99.90;;;;;;5037891;28;19929;-73
2022/09/01 04:48:12;;;;;;;;;;;15.30;99.90;;;;;;5015633;28;19937;-73
2022/09/01 04:50:42;;;;;;;;;;;15.30;99.90;;;;;;5022390;28;19929;-75
2022/09/01 04:53:18;;;;;;;;;;;15.20;99.90;;;;;;5009913;28;19940;-72
2022/09/01 04:55:47;;;;;;;;;;;15.10;99.90;;;;;;5004180;28;19925;-72
2022/09/01 04:58:17;;;;;;;;;;;15.10;99.90;;;;;;5012051;28;19963;-74
2022/09/01 05:00:46;;;;;;;;;;;15.10;99.90;;;;;;5011136;28;20271;-72
2022/09/01 05:03:15;;;;;;;;;;;14.60;99.90;;;;;;5025771;28;19936;-73
2022/09/01 05:05:57;;;;;;;;;;;15.10;99.90;;;;;;5009056;28;19929;-72
2022/09/01 05:08:23;;;;;;;;;;;15.10;99.90;;;;;;5028053;28;19929;-72
2022/09/01 05:10:52;;;;;;;;;;;15.10;99.90;;;;;;5015081;28;20340;-71
2022/09/01 05:13:30;;;;;;;;;;;15.20;99.90;;;;;;5010001;28;19929;-72
2022/09/01 05:16:00;;;;;;;;;;;15.20;99.90;;;;;;5011125;28;20012;-73
2022/09/01 05:18:27;;;;;;;;;;;15.20;99.90;;;;;;5032864;28;20609;-73
2022/09/01 05:20:56;;;;;;;;;;;15.20;99.90;;;;;;5009959;28;19948;-73
2022/09/01 05:23:25;;;;;;;;;;;15.30;99.90;;;;;;5010113;28;20401;-73
2022/09/01 05:25:53;;;;;;;;;;;15.30;99.90;;;;;;5029517;28;20358;-73
2022/09/01 05:28:23;;;;;;;;;;;15.40;99.90;;;;;;5029077;28;19939;-72
2022/09/01 05:30:52;;;;;;;;;;;15.70;99.90;;;;;;5026068;28;20028;-74
2022/09/01 05:33:20;;;;;;;;;;;15.50;99.90;;;;;;5030857;28;19936;-74
2022/09/01 05:35:52;;;;;;;;;;;15.50;99.90;;;;;;5014487;28;19925;-74
2022/09/01 05:38:20;;;;;;;;;;;15.50;99.90;;;;;;5026435;28;20007;-74
2022/09/01 05:40:56;;;;;;;;;;;15.50;99.90;;;;;;4994603;28;20677;-73
2022/09/01 05:43:24;;;;;;;;;;;15.60;99.90;;;;;;5539652;22;19929;-74
2022/09/01 05:45:54;;;;;;;;;;;15.60;99.90;;;;;;5009125;28;19932;-78
2022/09/01 05:48:22;;;;;;;;;;;15.60;99.90;;;;;;5030619;28;20453;-75
2022/09/01 05:50:51;;;;;;;;;;;15.60;99.90;;;;;;5014218;28;20688;-78
2022/09/01 05:53:20;;;;;;;;;;;15.70;99.90;;;;;;5017669;28;20642;-75
2022/09/01 05:55:51;;;;;;;;;;;15.80;99.90;;;;;;5020084;23;19991;-68
2022/09/01 05:58:18;;;;;;;;;;;15.90;99.90;;;;;;5020194;28;19983;-69
2022/09/01 06:00:46;;;;;;;;;;;16.00;99.90;;;;;;5015225;28;19929;-70
2022/09/01 06:03:14;;;;;;;;;;;16.20;99.90;;;;;;4994784;28;19992;-69
2022/09/01 06:05:47;;;;;;;;;;;16.40;99.90;;;;;;5020076;28;19933;-69
2022/09/01 06:08:16;;;;;;;;;;;16.50;99.90;;;;;;4994718;28;20012;-70
2022/09/01 06:10:44;;;;;;;;;;;16.80;99.90;;;;;;5012733;28;19932;-69
2022/09/01 06:13:14;;;;;;;;;;;17.40;99.90;;;;;;4994884;28;19960;-69
2022/09/01 06:15:41;;;;;;;;;;;18.20;99.90;;;;;;4999632;28;20275;-70
2022/09/01 06:18:10;;;;;;;;;;;18.80;99.90;;;;;;4992662;28;19925;-70
2022/09/01 06:20:43;;;;;;;;;;;19.10;99.90;;;;;;4984699;28;19996;-71
2022/09/01 06:23:11;;;;;;;;;;;19.00;99.90;;;;;;4981073;28;19965;-70
2022/09/01 06:25:38;;;;;;;;;;;19.00;99.90;;;;;;4983125;28;19929;-71
2022/09/01 06:28:07;;;;;;;;;;;19.40;99.90;;;;;;4993495;28;19936;-71
2022/09/01 06:30:36;;;;;;;;;;;19.90;99.90;;;;;;4996286;28;19926;-71
2022/09/01 06:33:09;;;;;;;;;;;21.20;99.90;;;;;;4996051;28;19937;-71
2022/09/01 06:35:39;;;;;;;;;;;22.30;99.90;;;;;;4988259;28;19929;-71
2022/09/01 06:38:07;;;;;;;;;;;22.90;99.90;;;;;;5013511;28;20298;-72
2022/09/01 06:40:44;;;;;;;;;;;23.80;99.90;;;;;;5000902;28;19933;-72
2022/09/01 06:43:15;;;;;;;;;;;25.00;99.90;;;;;;4994639;28;20024;-72
2022/09/01 06:45:53;;;;;;;;;;;26.20;97.60;;;;;;5009524;28;19975;-72
2022/09/01 06:48:21;;;;;;;;;;;26.40;96.70;;;;;;5009291;28;20300;-72
2022/09/01 06:50:48;;;;;;;;;;;26.90;96.00;;;;;;5001874;28;19929;-70
2022/09/01 06:53:17;;;;;;;;;;;27.40;95.50;;;;;;4992468;28;20102;-70
2022/09/01 06:55:48;;;;;;;;;;;27.70;93.70;;;;;;5025032;28;19929;-70
2022/09/01 06:58:15;;;;;;;;;;;28.10;93.40;;;;;;5024738;28;20024;-70
2022/09/01 07:00:48;;;;;;;;;;;28.60;93.40;;;;;;5024687;28;19933;-70
2022/09/01 07:03:16;;;;;;;;;;;29.00;91.60;;;;;;5013110;28;20380;-70
2022/09/01 07:06:06;;;;;;;;;;;28.50;89.80;;;;;;4994555;28;19970;-70
2022/09/01 07:08:54;;;;;;;;;;;28.40;90.50;;;;;;5010664;28;19936;-70
2022/09/01 07:11:28;;;;;;;;;;;28.50;90.60;;;;;;4992610;28;20466;-69
2022/09/01 07:13:56;;;;;;;;;;;28.70;88.40;;;;;;4991972;28;19998;-68
2022/09/01 07:16:26;;;;;;;;;;;28.60;89.40;;;;;;4992936;28;19929;-70
2022/09/01 07:18:55;;;;;;;;;;;28.80;90.10;;;;;;4988871;28;19959;-69
2022/09/01 07:21:22;;;;;;;;;;;29.30;90.50;;;;;;4991106;28;20446;-69
2022/09/01 07:23:50;;;;;;;;;;;29.60;85.90;;;;;;5008618;28;19925;-69
2022/09/01 07:26:18;;;;;;;;;;;29.60;83.00;;;;;;4991214;28;19936;-69
2022/09/01 07:28:46;;;;;;;;;;;29.40;83.40;;;;;;4991661;28;20377;-69
2022/09/01 07:31:20;;;;;;;;;;;29.40;83.60;;;;;;4993552;28;19964;-69
2022/09/01 07:33:50;;;;;;;;;;;29.50;84.60;;;;;;5005770;28;20299;-69
2022/09/01 07:36:16;;;;;;;;;;;29.70;81.30;;;;;;4986367;28;20060;-69
2022/09/01 07:38:43;;;;;;;;;;;29.60;79.60;;;;;;4990766;28;19926;-69
2022/09/01 07:41:12;;;;;;;;;;;29.30;79.00;;;;;;4991058;28;19941;-69
2022/09/01 07:43:59;;;;;;;;;;;29.20;79.90;;;;;;5009651;28;20083;-69
2022/09/01 07:46:41;;;;;;;;;;;29.00;80.70;;;;;;5010741;28;19937;-69
2022/09/01 07:49:14;;;;;;;;;;;29.00;78.20;;;;;;4991212;28;19933;-69
2022/09/01 07:51:41;;;;;;;;;;;29.10;79.70;;;;;;4990629;28;20391;-70
2022/09/01 07:54:12;;;;;;;;;;;29.40;79.60;;;;;;4989466;28;19925;-71
2022/09/01 07:56:40;;;;;;;;;;;29.50;78.80;;;;;;4991007;28;20309;-70
2022/09/01 07:59:08;;;;;;;;;;;29.60;77.90;;;;;;4990737;28;20512;-71
2022/09/01 08:01:35;;;;;;;;;;;29.70;77.70;;;;;;4991510;28;20461;-70
2022/09/01 08:04:03;;;;;;;;;;;29.90;76.20;;;;;;5004226;28;19932;-70
2022/09/01 08:06:31;;;;;;;;;;;29.80;76.00;;;;;;4995251;28;19988;-69
2022/09/01 08:08:59;;;;;;;;;;;29.60;74.60;;;;;;5027703;28;19983;-68
2022/09/01 08:11:28;;;;;;;;;;;29.50;75.50;;;;;;4991012;28;19932;-69
2022/09/01 08:13:57;;;;;;;;;;;29.50;74.30;;;;;;4987832;28;19933;-69
2022/09/01 08:16:25;;;;;;;;;;;29.10;73.40;;;;;;4990316;28;19955;-69
2022/09/01 08:18:52;;;;;;;;;;;29.10;75.30;;;;;;4988747;28;19964;-68
2022/09/01 08:21:27;;;;;;;;;;;29.30;75.10;;;;;;5006600;28;19960;-69
2022/09/01 08:24:21;;;;;;;;;;;29.30;73.50;;;;;;4989783;28;20027;-68
2022/09/01 08:26:48;;;;;;;;;;;29.30;71.30;;;;;;4990204;28;20422;-69
2022/09/01 08:29:14;;;;;;;;;;;28.90;71.20;;;;;;4989522;28;20401;-69
2022/09/01 08:31:43;;;;;;;;;;;28.70;71.60;;;;;;5006737;28;20371;-67
2022/09/01 08:34:11;;;;;;;;;;;28.30;71.50;;;;;;4990325;28;20091;-67
2022/09/01 08:36:38;;;;;;;;;;;28.10;72.90;;;;;;5007651;28;20430;-67
2022/09/01 08:39:06;;;;;;;;;;;28.20;73.50;;;;;;4998178;28;19929;-67
2022/09/01 08:41:40;;;;;;;;;;;28.20;73.30;;;;;;4987618;28;19942;-67
2022/09/01 08:44:10;;;;;;;;;;;28.40;73.50;;;;;;4988722;28;19936;-67
2022/09/01 08:46:40;;;;;;;;;;;28.30;70.50;;;;;;5001006;28;20306;-67
2022/09/01 08:49:08;;;;;;;;;;;27.90;71.00;;;;;;5011174;28;19937;-67
2022/09/01 08:51:58;;;;;;;;;;;27.50;71.60;;;;;;5007265;28;19936;-67
2022/09/01 08:54:29;;;;;;;;;;;27.20;72.40;;;;;;4990601;28;19956;-67
2022/09/01 08:56:59;;;;;;;;;;;27.00;72.20;;;;;;4988908;28;19926;-67
2022/09/01 08:59:46;;;;;;;;;;;26.90;73.00;;;;;;5008338;28;19969;-67
2022/09/01 09:02:39;;;;;;;;;;;26.80;74.10;;;;;;5007818;28;19933;-67
2022/09/01 09:05:08;;;;;;;;;;;27.90;72.90;;;;;;4999931;28;20004;-67
2022/09/01 09:07:43;;;;;;;;;;;26.80;72.80;;;;;;5008015;28;19929;-67
2022/09/01 09:10:12;;;;;;;;;;;26.50;72.90;;;;;;5004391;28;19930;-67
2022/09/01 09:12:50;;;;;;;;;;;26.30;73.60;;;;;;5008829;28;19929;-67
2022/09/01 09:15:20;;;;;;;;;;;26.10;73.60;;;;;;5007358;28;20378;-68
2022/09/01 09:17:49;;;;;;;;;;;26.20;74.40;;;;;;5007827;28;19935;-69
2022/09/01 09:20:17;;;;;;;;;;;25.60;73.40;;;;;;5007032;28;20383;-69
2022/09/01 09:22:44;;;;;;;;;;;25.80;73.50;;;;;;5003765;28;19925;-69
2022/09/01 09:25:13;;;;;;;;;;;25.60;73.70;;;;;;5004576;28;19929;-69
2022/09/01 09:27:41;;;;;;;;;;;25.60;74.40;;;;;;5007378;28;20024;-69
2022/09/01 09:30:10;;;;;;;;;;;25.60;74.30;;;;;;5004184;28;19926;-69
2022/09/01 09:32:45;;;;;;;;;;;25.60;73.70;;;;;;5006799;28;19930;-69
2022/09/01 09:35:20;;;;;;;;;;;25.20;71.70;;;;;;5005737;28;19932;-68
2022/09/01 09:37:48;;;;;;;;;;;25.10;72.10;;;;;;4999547;28;19929;-69
2022/09/01 09:40:15;;;;;;;;;;;24.70;72.50;;;;;;4985330;28;19926;-68
2022/09/01 09:42:43;;;;;;;;;;;24.20;73.30;;;;;;4988245;28;19934;-69
2022/09/01 09:45:20;;;;;;;;;;;23.80;73.40;;;;;;4989600;28;19930;-69
2022/09/01 09:47:47;;;;;;;;;;;23.80;74.30;;;;;;4995797;28;19930;-71
2022/09/01 09:50:19;;;;;;;;;;;23.60;74.90;;;;;;4987579;28;19925;-71
2022/09/01 09:52:46;;;;;;;;;;;23.50;76.50;;;;;;5002894;28;19929;-71
2022/09/01 09:55:20;;;;;;;;;;;23.50;76.60;;;;;;5019327;28;19999;-71
2022/09/01 09:57:48;;;;;;;;;;;23.50;76.60;;;;;;5007668;28;20000;-71
2022/09/01 10:00:19;;;;;;;;;;;23.50;76.30;;;;;;5009657;28;19949;-71
2022/09/01 10:02:46;;;;;;;;;;;23.50;76.30;;;;;;4989619;28;20394;-69
2022/09/01 10:05:24;;;;;;;;;;;23.50;75.90;;;;;;5007111;28;19933;-68
2022/09/01 10:07:51;;;;;;;;;;;23.50;76.70;;;;;;5001084;28;19929;-69
2022/09/01 10:10:26;;;;;;;;;;;23.50;76.60;;;;;;4988286;28;20322;-68
2022/09/01 10:12:53;;;;;;;;;;;23.50;77.50;;;;;;4990281;28;19933;-69
2022/09/01 10:15:23;;;;;;;;;;;23.70;76.60;;;;;;5008077;28;19933;-69
2022/09/01 10:17:51;;;;;;;;;;;23.70;77.20;;;;;;5014981;28;19929;-67
2022/09/01 10:20:19;;;;;;;;;;;23.90;76.90;;;;;;5011089;28;19929;-67
2022/09/01 10:22:47;;;;;;;;;;;24.00;76.50;;;;;;5011343;28;19930;-69
2022/09/01 10:25:16;;;;;;;;;;;24.10;75.90;;;;;;5009860;28;19987;-69
2022/09/01 10:27:45;;;;;;;;;;;24.10;75.50;;;;;;5010601;28;19929;-69
2022/09/01 10:30:13;;;;;;;;;;;24.10;75.60;;;;;;5009275;28;20506;-69
2022/09/01 10:32:43;;;;;;;;;;;24.10;75.60;;;;;;5010261;28;19964;-69
2022/09/01 10:35:12;;;;;;;;;;;24.10;75.50;;;;;;5006935;28;19929;-68
2022/09/01 10:37:40;;;;;;;;;;;24.10;76.20;;;;;;5003377;28;20044;-69
2022/09/01 10:40:11;;;;;;;;;;;24.30;76.40;;;;;;5000405;28;19937;-69
2022/09/01 10:42:41;;;;;;;;;;;24.40;76.00;;;;;;5011477;28;19929;-69
2022/09/01 10:45:16;;;;;;;;;;;24.50;76.20;;;;;;5009596;28;19968;-68
2022/09/01 10:47:45;;;;;;;;;;;24.70;75.70;;;;;;5009687;28;20458;-69
2022/09/01 10:50:26;;;;;;;;;;;24.70;75.70;;;;;;5008322;28;20307;-69
2022/09/01 10:53:03;;;;;;;;;;;24.70;75.60;;;;;;5002874;28;19975;-68
2022/09/01 10:55:41;;;;;;;;;;;25.00;75.30;;;;;;5028991;28;19929;-68
2022/09/01 10:58:15;;;;;;;;;;;25.00;75.70;;;;;;5029449;28;20144;-69
2022/09/01 11:00:52;;;;;;;;;;;24.00;74.70;;;;;;5026960;28;19938;-69
2022/09/01 11:03:37;;;;;;;;;;;25.30;74.20;;;;;;5007186;28;19975;-69
2022/09/01 11:06:07;;;;;;;;;;;25.30;74.80;;;;;;5003842;28;19937;-69
2022/09/01 11:08:41;;;;;;;;;;;25.40;74.70;;;;;;5008182;28;19970;-67
2022/09/01 11:11:14;;;;;;;;;;;25.50;74.90;;;;;;5000142;28;19926;-67
2022/09/01 11:13:43;;;;;;;;;;;25.60;75.50;;;;;;5006280;28;19933;-67
2022/09/01 11:16:29;;;;;;;;;;;25.90;74.90;;;;;;5012099;28;20230;-67
2022/09/01 11:19:15;;;;;;;;;;;25.90;75.00;;;;;;5006688;28;19932;-70
2022/09/01 11:21:43;;;;;;;;;;;25.90;74.20;;;;;;5009710;28;20346;-70
2022/09/01 11:24:29;;;;;;;;;;;25.90;75.20;;;;;;5009953;28;19929;-67
2022/09/01 11:26:56;;;;;;;;;;;26.10;74.20;;;;;;4991928;28;19932;-70
2022/09/01 11:29:49;;;;;;;;;;;26.20;74.50;;;;;;5009721;28;19953;-69
2022/09/01 11:32:16;;;;;;;;;;;26.10;73.80;;;;;;4951636;28;19932;-70
2022/09/01 11:34:44;;;;;;;;;;;26.00;74.00;;;;;;4991526;28;20046;-70
2022/09/01 11:37:15;;;;;;;;;;;26.00;73.20;;;;;;5008248;28;19979;-70
2022/09/01 11:39:46;;;;;;;;;;;26.10;74.10;;;;;;5007950;28;19941;-70
2022/09/01 11:42:17;;;;;;;;;;;26.20;74.00;;;;;;5010024;28;19929;-68
2022/09/01 11:44:47;;;;;;;;;;;26.10;73.90;;;;;;5010625;28;19936;-67
2022/09/01 11:47:16;;;;;;;;;;;26.20;73.40;;;;;;5016857;28;20158;-67
2022/09/01 11:49:48;;;;;;;;;;;26.20;73.80;;;;;;5021281;28;19935;-67
2022/09/01 11:52:17;;;;;;;;;;;26.20;74.30;;;;;;5026603;28;19930;-67
2022/09/01 11:54:45;;;;;;;;;;;26.20;74.20;;;;;;5029128;28;19928;-70
2022/09/01 11:57:32;;;;;;;;;;;26.30;73.70;;;;;;5039338;22;19952;-75
2022/09/01 12:00:01;;;;;;;;;;;26.40;75.00;;;;;;5014278;28;19933;-80
2022/09/01 12:02:30;;;;;;;;;;;26.50;74.20;;;;;;5015192;28;19929;-77
2022/09/01 12:04:57;;;;;;;;;;;26.60;74.20;;;;;;5002599;28;20385;-79
2022/09/01 12:07:28;;;;;;;;;;;26.80;73.90;;;;;;5028737;28;19952;-76
2022/09/01 12:09:55;;;;;;;;;;;27.00;74.00;;;;;;5000609;28;20525;-74
2022/09/01 12:12:29;;;;;;;;;;;27.30;74.00;;;;;;5005189;28;20294;-76
2022/09/01 12:14:56;;;;;;;;;;;27.50;73.70;;;;;;5004721;28;19926;-76
2022/09/01 12:17:23;;;;;;;;;;;27.40;72.30;;;;;;5463080;22;19929;-73
2022/09/01 12:19:50;;;;;;;;;;;27.30;72.60;;;;;;5055166;28;19928;-77
2022/09/01 12:22:18;;;;;;;;;;;27.10;72.20;;;;;;5045979;28;19929;-75
2022/09/01 12:24:47;;;;;;;;;;;27.00;72.50;;;;;;5055938;28;19975;-74
2022/09/01 12:27:14;;;;;;;;;;;27.20;72.50;;;;;;5054262;28;20070;-75
2022/09/01 12:29:41;;;;;;;;;;;27.30;73.50;;;;;;5048673;28;19929;-75
2022/09/01 12:32:08;;;;;;;;;;;27.50;71.70;;;;;;5066602;22;19954;-69
2022/09/01 12:34:39;;;;;;;;;;;27.50;71.60;;;;;;5074146;28;19954;-68
2022/09/01 12:37:20;;;;;;;;;;;27.40;71.40;;;;;;5049543;28;19928;-70
2022/09/01 12:39:49;;;;;;;;;;;27.50;71.90;;;;;;5067883;28;20368;-69
2022/09/01 12:42:24;;;;;;;;;;;27.40;71.00;;;;;;5075580;28;19984;-69
2022/09/01 12:44:52;;;;;;;;;;;27.40;72.00;;;;;;5089216;28;19931;-69
2022/09/01 12:47:34;;;;;;;;;;;27.60;72.40;;;;;;5108082;28;19934;-69
2022/09/01 12:50:02;;;;;;;;;;;27.80;71.50;;;;;;5079992;28;19940;-69
2022/09/01 12:52:29;;;;;;;;;;;27.90;69.30;;;;;;5094577;28;19934;-69
2022/09/01 12:55:09;;;;;;;;;;;27.90;70.10;;;;;;5083908;28;19950;-69
2022/09/01 12:57:37;;;;;;;;;;;28.00;69.90;;;;;;5087409;28;19939;-70
2022/09/01 13:00:16;;;;;;;;;;;27.90;70.00;;;;;;5099003;28;20311;-69
2022/09/01 13:02:46;;;;;;;;;;;28.00;69.70;;;;;;5083206;28;20281;-69
2022/09/01 13:05:20;;;;;;;;;;;28.10;69.40;;;;;;5083130;28;19978;-69
2022/09/01 13:07:47;;;;;;;;;;;28.10;68.90;;;;;;5087781;28;20353;-69
2022/09/01 13:10:16;;;;;;;;;;;28.20;69.10;;;;;;5105823;28;20687;-69
2022/09/01 13:12:43;;;;;;;;;;;28.40;69.00;;;;;;5079897;28;19932;-70
2022/09/01 13:15:10;;;;;;;;;;;28.50;68.90;;;;;;5096915;28;19935;-69
2022/09/01 13:17:37;;;;;;;;;;;28.60;68.80;;;;;;5102205;28;19928;-69
2022/09/01 13:20:04;;;;;;;;;;;28.70;68.50;;;;;;5089230;28;20022;-68
2022/09/01 13:22:30;;;;;;;;;;;28.80;67.30;;;;;;5087580;28;19943;-69
2022/09/01 13:24:57;;;;;;;;;;;28.80;67.50;;;;;;5074504;28;19927;-69
2022/09/01 13:27:25;;;;;;;;;;;28.70;67.60;;;;;;5077667;28;20633;-70
2022/09/01 13:29:52;;;;;;;;;;;28.50;67.50;;;;;;5069401;28;19932;-70
2022/09/01 13:32:19;;;;;;;;;;;28.50;67.20;;;;;;5071015;28;19924;-70
2022/09/01 13:34:47;;;;;;;;;;;28.50;67.80;;;;;;5084725;28;19935;-70
2022/09/01 13:37:13;;;;;;;;;;;28.70;67.20;;;;;;5089550;28;20117;-69
2022/09/01 13:39:40;;;;;;;;;;;28.70;67.30;;;;;;5088623;28;19928;-70
2022/09/01 13:42:07;;;;;;;;;;;28.80;66.70;;;;;;5082364;28;19928;-70
2022/09/01 13:44:35;;;;;;;;;;;28.80;67.30;;;;;;5090718;28;20450;-70
2022/09/01 13:47:02;;;;;;;;;;;28.70;66.10;;;;;;5085035;28;19928;-69
2022/09/01 13:49:30;;;;;;;;;;;28.70;66.70;;;;;;5075601;28;19928;-72
2022/09/01 13:51:57;;;;;;;;;;;28.40;66.20;;;;;;5068272;28;19931;-69
2022/09/01 13:54:23;;;;;;;;;;;28.30;67.20;;;;;;5078503;28;20679;-69
2022/09/01 13:56:51;;;;;;;;;;;28.30;66.80;;;;;;5094313;28;19998;-70
2022/09/01 13:59:17;;;;;;;;;;;28.20;66.40;;;;;;5092745;28;20401;-68
2022/09/01 14:01:45;;;;;;;;;;;28.20;66.70;;;;;;5084131;28;20389;-69
2022/09/01 14:04:12;;;;;;;;;;;28.10;67.10;;;;;;5082106;28;19936;-70
2022/09/01 14:06:40;;;;;;;;;;;28.00;67.60;;;;;;5087139;28;20292;-68
2022/09/01 14:09:06;;;;;;;;;;;28.00;68.30;;;;;;5077238;28;19928;-68
2022/09/01 14:11:35;;;;;;;;;;;28.10;66.90;;;;;;5079021;28;19924;-69
2022/09/01 14:14:02;;;;;;;;;;;28.20;67.40;;;;;;5076269;28;20030;-68
2022/09/01 14:16:28;;;;;;;;;;;28.10;68.50;;;;;;5083791;28;19928;-69
2022/09/01 14:18:58;;;;;;;;;;;27.90;67.10;;;;;;5078465;28;20641;-69
2022/09/01 14:21:25;;;;;;;;;;;27.90;67.10;;;;;;5078017;28;19928;-68
2022/09/01 14:23:52;;;;;;;;;;;27.90;67.90;;;;;;5095115;28;19950;-70
2022/09/01 14:26:19;;;;;;;;;;;27.80;67.60;;;;;;5110069;28;19928;-68
2022/09/01 14:28:47;;;;;;;;;;;27.70;67.90;;;;;;5091158;28;19928;-68
2022/09/01 14:31:14;;;;;;;;;;;27.40;67.50;;;;;;5082049;28;20478;-69
2022/09/01 14:33:41;;;;;;;;;;;27.40;68.20;;;;;;5078649;28;19928;-69